sensor_id;sensor_type;location;lat;lon;timestamp;P1;durP1;ratioP1;P2;durP2;ratioP2
80229;SDS011;69540;42.136;24.742;2024-02-15T00:00:04;4.53;;;4.07;;
80229;SDS011;69540;42.136;24.742;2024-02-15T00:02:31;5.90;;;3.90;;
80229;SDS011;69540;42.136;24.742;2024-02-15T00:04:57;3.90;;;3.53;;
80229;SDS011;69540;42.136;24.742;2024-02-15T00:07:23;3.80;;;3.50;;
80229;SDS011;69540;42.136;24.742;2024-02-15T00:09:49;4.25;;;3.85;;
80229;SDS011;69540;42.136;24.742;2024-02-15T00:12:14;4.25;;;3.85;;
80229;SDS011;69540;42.136;24.742;2024-02-15T00:14:40;4.28;;;3.88;;
80229;SDS011;69540;42.136;24.742;2024-02-15T00:17:06;4.60;;;4.05;;
80229;SDS011;69540;42.136;24.742;2024-02-15T00:19:32;4.03;;;3.67;;
80229;SDS011;69540;42.136;24.742;2024-02-15T00:21:57;4.40;;;3.80;;
80229;SDS011;69540;42.136;24.742;2024-02-15T00:24:24;4.15;;;3.75;;
80229;SDS011;69540;42.136;24.742;2024-02-15T00:26:50;10.07;;;4.13;;
80229;SDS011;69540;42.136;24.742;2024-02-15T00:29:16;4.10;;;3.80;;
80229;SDS011;69540;42.136;24.742;2024-02-15T00:31:41;4.65;;;3.88;;
80229;SDS011;69540;42.136;24.742;2024-02-15T00:34:07;4.47;;;3.75;;
80229;SDS011;69540;42.136;24.742;2024-02-15T00:36:33;4.43;;;4.03;;
80229;SDS011;69540;42.136;24.742;2024-02-15T00:38:59;3.90;;;3.60;;
80229;SDS011;69540;42.136;24.742;2024-02-15T00:41:25;4.63;;;3.67;;
80229;SDS011;69540;42.136;24.742;2024-02-15T00:43:51;5.18;;;3.63;;
80229;SDS011;69540;42.136;24.742;2024-02-15T00:46:16;4.15;;;3.55;;
80229;SDS011;69540;42.136;24.742;2024-02-15T00:48:42;5.53;;;3.72;;
80229;SDS011;69540;42.136;24.742;2024-02-15T00:51:08;3.97;;;3.42;;
80229;SDS011;69540;42.136;24.742;2024-02-15T00:53:33;4.28;;;3.88;;
80229;SDS011;69540;42.136;24.742;2024-02-15T00:55:59;4.40;;;4.00;;
80229;SDS011;69540;42.136;24.742;2024-02-15T00:58:25;4.03;;;3.45;;
80229;SDS011;69540;42.136;24.742;2024-02-15T01:00:52;3.72;;;3.42;;
80229;SDS011;69540;42.136;24.742;2024-02-15T01:03:21;5.95;;;3.70;;
80229;SDS011;69540;42.136;24.742;2024-02-15T01:05:47;4.20;;;3.80;;
80229;SDS011;69540;42.136;24.742;2024-02-15T01:08:13;3.80;;;3.50;;
80229;SDS011;69540;42.136;24.742;2024-02-15T01:10:39;4.20;;;3.55;;
80229;SDS011;69540;42.136;24.742;2024-02-15T01:13:05;5.65;;;3.60;;
80229;SDS011;69540;42.136;24.742;2024-02-15T01:15:31;5.13;;;3.90;;
80229;SDS011;69540;42.136;24.742;2024-02-15T01:17:57;4.38;;;3.75;;
80229;SDS011;69540;42.136;24.742;2024-02-15T01:20:22;4.13;;;3.75;;
80229;SDS011;69540;42.136;24.742;2024-02-15T01:22:48;5.22;;;3.40;;
80229;SDS011;69540;42.136;24.742;2024-02-15T01:25:16;4.68;;;3.50;;
80229;SDS011;69540;42.136;24.742;2024-02-15T01:27:42;4.18;;;3.65;;
80229;SDS011;69540;42.136;24.742;2024-02-15T01:30:08;5.95;;;3.80;;
80229;SDS011;69540;42.136;24.742;2024-02-15T01:32:35;4.07;;;3.70;;
80229;SDS011;69540;42.136;24.742;2024-02-15T01:35:02;4.28;;;3.67;;
80229;SDS011;69540;42.136;24.742;2024-02-15T01:37:27;3.90;;;3.60;;
80229;SDS011;69540;42.136;24.742;2024-02-15T01:39:53;4.07;;;3.65;;
80229;SDS011;69540;42.136;24.742;2024-02-15T01:42:19;4.95;;;3.97;;
80229;SDS011;69540;42.136;24.742;2024-02-15T01:44:45;4.30;;;3.90;;
80229;SDS011;69540;42.136;24.742;2024-02-15T01:47:12;4.07;;;3.67;;
80229;SDS011;69540;42.136;24.742;2024-02-15T01:49:38;4.05;;;3.67;;
80229;SDS011;69540;42.136;24.742;2024-02-15T01:52:06;4.50;;;4.10;;
80229;SDS011;69540;42.136;24.742;2024-02-15T01:54:34;4.90;;;3.78;;
80229;SDS011;69540;42.136;24.742;2024-02-15T01:57:04;4.40;;;4.00;;
80229;SDS011;69540;42.136;24.742;2024-02-15T01:59:30;4.28;;;3.85;;
80229;SDS011;69540;42.136;24.742;2024-02-15T02:01:56;4.57;;;3.88;;
80229;SDS011;69540;42.136;24.742;2024-02-15T02:04:22;4.75;;;3.80;;
80229;SDS011;69540;42.136;24.742;2024-02-15T02:06:48;5.57;;;3.75;;
80229;SDS011;69540;42.136;24.742;2024-02-15T02:09:14;5.43;;;3.85;;
80229;SDS011;69540;42.136;24.742;2024-02-15T02:11:44;4.50;;;4.10;;
80229;SDS011;69540;42.136;24.742;2024-02-15T02:14:11;4.25;;;3.85;;
80229;SDS011;69540;42.136;24.742;2024-02-15T02:16:37;3.88;;;3.35;;
80229;SDS011;69540;42.136;24.742;2024-02-15T02:19:04;4.15;;;3.70;;
80229;SDS011;69540;42.136;24.742;2024-02-15T02:21:34;6.35;;;4.03;;
80229;SDS011;69540;42.136;24.742;2024-02-15T02:24:02;4.13;;;3.72;;
80229;SDS011;69540;42.136;24.742;2024-02-15T02:26:33;3.90;;;3.60;;
80229;SDS011;69540;42.136;24.742;2024-02-15T02:28:59;6.82;;;4.07;;
80229;SDS011;69540;42.136;24.742;2024-02-15T02:31:25;7.65;;;4.10;;
80229;SDS011;69540;42.136;24.742;2024-02-15T02:33:51;4.50;;;4.10;;
80229;SDS011;69540;42.136;24.742;2024-02-15T02:36:18;4.47;;;4.07;;
80229;SDS011;69540;42.136;24.742;2024-02-15T02:38:44;4.20;;;3.70;;
80229;SDS011;69540;42.136;24.742;2024-02-15T02:41:13;5.13;;;4.05;;
80229;SDS011;69540;42.136;24.742;2024-02-15T02:43:40;4.40;;;4.00;;
80229;SDS011;69540;42.136;24.742;2024-02-15T02:46:06;5.57;;;3.90;;
80229;SDS011;69540;42.136;24.742;2024-02-15T02:48:35;4.47;;;4.07;;
80229;SDS011;69540;42.136;24.742;2024-02-15T02:51:02;3.92;;;3.63;;
80229;SDS011;69540;42.136;24.742;2024-02-15T02:53:27;4.07;;;3.72;;
80229;SDS011;69540;42.136;24.742;2024-02-15T02:55:54;7.28;;;4.15;;
80229;SDS011;69540;42.136;24.742;2024-02-15T02:58:21;4.45;;;3.70;;
80229;SDS011;69540;42.136;24.742;2024-02-15T03:00:48;5.82;;;3.85;;
80229;SDS011;69540;42.136;24.742;2024-02-15T03:03:14;4.53;;;3.85;;
80229;SDS011;69540;42.136;24.742;2024-02-15T03:05:41;4.25;;;3.78;;
80229;SDS011;69540;42.136;24.742;2024-02-15T03:08:10;4.38;;;3.97;;
80229;SDS011;69540;42.136;24.742;2024-02-15T03:10:38;4.72;;;3.95;;
80229;SDS011;69540;42.136;24.742;2024-02-15T03:13:05;4.38;;;3.97;;
80229;SDS011;69540;42.136;24.742;2024-02-15T03:15:31;4.20;;;3.80;;
80229;SDS011;69540;42.136;24.742;2024-02-15T03:17:58;5.95;;;4.40;;
80229;SDS011;69540;42.136;24.742;2024-02-15T03:20:24;4.22;;;3.83;;
80229;SDS011;69540;42.136;24.742;2024-02-15T03:22:53;4.72;;;3.90;;
80229;SDS011;69540;42.136;24.742;2024-02-15T03:25:20;5.18;;;3.92;;
80229;SDS011;69540;42.136;24.742;2024-02-15T03:27:49;5.50;;;3.90;;
80229;SDS011;69540;42.136;24.742;2024-02-15T03:30:19;6.68;;;4.25;;
80229;SDS011;69540;42.136;24.742;2024-02-15T03:32:46;5.50;;;4.43;;
80229;SDS011;69540;42.136;24.742;2024-02-15T03:35:13;4.45;;;4.05;;
80229;SDS011;69540;42.136;24.742;2024-02-15T03:37:43;4.45;;;4.05;;
80229;SDS011;69540;42.136;24.742;2024-02-15T03:40:09;6.00;;;4.22;;
80229;SDS011;69540;42.136;24.742;2024-02-15T03:42:35;4.40;;;4.00;;
80229;SDS011;69540;42.136;24.742;2024-02-15T03:45:05;4.68;;;4.07;;
80229;SDS011;69540;42.136;24.742;2024-02-15T03:47:34;4.55;;;4.15;;
80229;SDS011;69540;42.136;24.742;2024-02-15T03:52:38;4.50;;;4.00;;
80229;SDS011;69540;42.136;24.742;2024-02-15T03:55:04;4.22;;;3.78;;
80229;SDS011;69540;42.136;24.742;2024-02-15T03:57:32;4.45;;;4.07;;
80229;SDS011;69540;42.136;24.742;2024-02-15T03:59:58;6.15;;;4.32;;
80229;SDS011;69540;42.136;24.742;2024-02-15T04:02:25;5.78;;;4.00;;
80229;SDS011;69540;42.136;24.742;2024-02-15T04:04:55;4.88;;;4.07;;
80229;SDS011;69540;42.136;24.742;2024-02-15T04:07:22;4.75;;;4.30;;
80229;SDS011;69540;42.136;24.742;2024-02-15T04:09:50;4.65;;;4.18;;
80229;SDS011;69540;42.136;24.742;2024-02-15T04:12:16;4.30;;;3.90;;
80229;SDS011;69540;42.136;24.742;2024-02-15T04:14:43;4.57;;;4.15;;
80229;SDS011;69540;42.136;24.742;2024-02-15T04:17:12;4.75;;;4.28;;
80229;SDS011;69540;42.136;24.742;2024-02-15T04:19:44;4.82;;;4.30;;
80229;SDS011;69540;42.136;24.742;2024-02-15T04:22:15;6.20;;;4.30;;
80229;SDS011;69540;42.136;24.742;2024-02-15T04:24:42;4.50;;;4.05;;
80229;SDS011;69540;42.136;24.742;2024-02-15T04:27:09;5.63;;;4.10;;
80229;SDS011;69540;42.136;24.742;2024-02-15T04:29:39;5.45;;;4.50;;
80229;SDS011;69540;42.136;24.742;2024-02-15T04:32:09;5.05;;;4.45;;
80229;SDS011;69540;42.136;24.742;2024-02-15T04:34:41;5.40;;;4.30;;
80229;SDS011;69540;42.136;24.742;2024-02-15T04:37:07;5.32;;;4.20;;
80229;SDS011;69540;42.136;24.742;2024-02-15T04:39:36;4.30;;;3.90;;
80229;SDS011;69540;42.136;24.742;2024-02-15T04:42:05;4.68;;;4.28;;
80229;SDS011;69540;42.136;24.742;2024-02-15T04:44:34;4.22;;;3.83;;
80229;SDS011;69540;42.136;24.742;2024-02-15T04:47:01;4.65;;;4.10;;
80229;SDS011;69540;42.136;24.742;2024-02-15T04:49:30;4.78;;;4.00;;
80229;SDS011;69540;42.136;24.742;2024-02-15T04:51:55;5.60;;;4.40;;
80229;SDS011;69540;42.136;24.742;2024-02-15T04:54:27;5.88;;;4.57;;
80229;SDS011;69540;42.136;24.742;2024-02-15T04:56:52;4.97;;;4.43;;
80229;SDS011;69540;42.136;24.742;2024-02-15T04:59:19;4.60;;;4.20;;
80229;SDS011;69540;42.136;24.742;2024-02-15T05:01:46;5.32;;;4.28;;
80229;SDS011;69540;42.136;24.742;2024-02-15T05:04:14;5.05;;;4.40;;
80229;SDS011;69540;42.136;24.742;2024-02-15T05:06:40;4.72;;;4.32;;
80229;SDS011;69540;42.136;24.742;2024-02-15T05:09:06;5.40;;;4.30;;
80229;SDS011;69540;42.136;24.742;2024-02-15T05:11:43;4.43;;;3.90;;
80229;SDS011;69540;42.136;24.742;2024-02-15T05:14:13;5.07;;;4.35;;
80229;SDS011;69540;42.136;24.742;2024-02-15T05:16:44;5.22;;;3.90;;
80229;SDS011;69540;42.136;24.742;2024-02-15T05:19:12;4.15;;;3.72;;
80229;SDS011;69540;42.136;24.742;2024-02-15T05:21:41;4.63;;;4.13;;
80229;SDS011;69540;42.136;24.742;2024-02-15T05:24:11;5.90;;;4.10;;
80229;SDS011;69540;42.136;24.742;2024-02-15T05:26:39;4.60;;;4.20;;
80229;SDS011;69540;42.136;24.742;2024-02-15T05:29:06;5.45;;;4.03;;
80229;SDS011;69540;42.136;24.742;2024-02-15T05:31:31;4.70;;;4.20;;
80229;SDS011;69540;42.136;24.742;2024-02-15T05:33:59;4.30;;;3.90;;
80229;SDS011;69540;42.136;24.742;2024-02-15T05:36:25;4.40;;;4.00;;
80229;SDS011;69540;42.136;24.742;2024-02-15T05:38:52;3.85;;;3.55;;
80229;SDS011;69540;42.136;24.742;2024-02-15T05:41:19;4.43;;;4.03;;
80229;SDS011;69540;42.136;24.742;2024-02-15T05:43:46;4.57;;;3.97;;
80229;SDS011;69540;42.136;24.742;2024-02-15T05:46:13;4.82;;;4.18;;
80229;SDS011;69540;42.136;24.742;2024-02-15T05:48:40;5.60;;;4.10;;
80229;SDS011;69540;42.136;24.742;2024-02-15T05:51:06;5.57;;;4.53;;
80229;SDS011;69540;42.136;24.742;2024-02-15T05:53:33;5.10;;;4.60;;
80229;SDS011;69540;42.136;24.742;2024-02-15T05:56:01;4.70;;;4.20;;
80229;SDS011;69540;42.136;24.742;2024-02-15T05:58:32;4.80;;;3.92;;
80229;SDS011;69540;42.136;24.742;2024-02-15T06:01:01;5.25;;;4.25;;
80229;SDS011;69540;42.136;24.742;2024-02-15T06:03:34;5.13;;;4.18;;
80229;SDS011;69540;42.136;24.742;2024-02-15T06:06:03;5.32;;;4.40;;
80229;SDS011;69540;42.136;24.742;2024-02-15T06:08:34;4.63;;;4.22;;
80229;SDS011;69540;42.136;24.742;2024-02-15T06:11:01;5.80;;;4.32;;
80229;SDS011;69540;42.136;24.742;2024-02-15T06:13:27;4.57;;;4.18;;
80229;SDS011;69540;42.136;24.742;2024-02-15T06:15:53;5.07;;;4.57;;
80229;SDS011;69540;42.136;24.742;2024-02-15T06:18:19;4.80;;;4.35;;
80229;SDS011;69540;42.136;24.742;2024-02-15T06:20:59;4.65;;;4.25;;
80229;SDS011;69540;42.136;24.742;2024-02-15T06:23:26;4.85;;;4.45;;
80229;SDS011;69540;42.136;24.742;2024-02-15T06:25:53;4.72;;;4.18;;
80229;SDS011;69540;42.136;24.742;2024-02-15T06:28:20;6.15;;;4.30;;
80229;SDS011;69540;42.136;24.742;2024-02-15T06:31:05;6.57;;;4.68;;
80229;SDS011;69540;42.136;24.742;2024-02-15T06:33:50;4.80;;;4.22;;
80229;SDS011;69540;42.136;24.742;2024-02-15T06:36:38;6.78;;;4.82;;
80229;SDS011;69540;42.136;24.742;2024-02-15T06:39:33;5.03;;;4.28;;
80229;SDS011;69540;42.136;24.742;2024-02-15T06:42:10;6.88;;;4.35;;
80229;SDS011;69540;42.136;24.742;2024-02-15T06:44:45;9.75;;;4.50;;
80229;SDS011;69540;42.136;24.742;2024-02-15T06:47:12;4.95;;;4.45;;
80229;SDS011;69540;42.136;24.742;2024-02-15T06:49:39;7.47;;;4.10;;
80229;SDS011;69540;42.136;24.742;2024-02-15T06:52:07;5.93;;;4.45;;
80229;SDS011;69540;42.136;24.742;2024-02-15T06:54:37;7.75;;;4.93;;
80229;SDS011;69540;42.136;24.742;2024-02-15T06:57:06;5.15;;;4.47;;
80229;SDS011;69540;42.136;24.742;2024-02-15T06:59:32;5.60;;;4.55;;
80229;SDS011;69540;42.136;24.742;2024-02-15T07:01:59;5.43;;;4.68;;
80229;SDS011;69540;42.136;24.742;2024-02-15T07:04:25;4.78;;;4.35;;
80229;SDS011;69540;42.136;24.742;2024-02-15T07:06:52;6.75;;;4.53;;
80229;SDS011;69540;42.136;24.742;2024-02-15T07:09:19;5.70;;;4.68;;
80229;SDS011;69540;42.136;24.742;2024-02-15T07:11:49;5.15;;;4.28;;
80229;SDS011;69540;42.136;24.742;2024-02-15T07:14:16;6.82;;;4.60;;
80229;SDS011;69540;42.136;24.742;2024-02-15T07:16:48;6.57;;;4.50;;
80229;SDS011;69540;42.136;24.742;2024-02-15T07:19:15;5.40;;;4.20;;
80229;SDS011;69540;42.136;24.742;2024-02-15T07:21:41;5.25;;;4.45;;
80229;SDS011;69540;42.136;24.742;2024-02-15T07:24:07;6.97;;;4.80;;
80229;SDS011;69540;42.136;24.742;2024-02-15T07:26:34;4.90;;;4.32;;
80229;SDS011;69540;42.136;24.742;2024-02-15T07:29:01;5.45;;;4.40;;
80229;SDS011;69540;42.136;24.742;2024-02-15T07:31:30;5.15;;;4.35;;
80229;SDS011;69540;42.136;24.742;2024-02-15T07:33:57;6.68;;;4.30;;
80229;SDS011;69540;42.136;24.742;2024-02-15T07:36:23;5.38;;;4.47;;
80229;SDS011;69540;42.136;24.742;2024-02-15T07:38:49;5.25;;;4.75;;
80229;SDS011;69540;42.136;24.742;2024-02-15T07:41:18;5.35;;;4.60;;
80229;SDS011;69540;42.136;24.742;2024-02-15T07:43:51;5.50;;;4.50;;
80229;SDS011;69540;42.136;24.742;2024-02-15T07:46:20;4.82;;;4.32;;
80229;SDS011;69540;42.136;24.742;2024-02-15T07:48:46;4.55;;;4.13;;
80229;SDS011;69540;42.136;24.742;2024-02-15T07:51:13;6.97;;;4.68;;
80229;SDS011;69540;42.136;24.742;2024-02-15T07:53:48;6.68;;;4.15;;
80229;SDS011;69540;42.136;24.742;2024-02-15T07:56:16;5.38;;;4.25;;
80229;SDS011;69540;42.136;24.742;2024-02-15T07:58:48;6.65;;;4.20;;
80229;SDS011;69540;42.136;24.742;2024-02-15T08:01:17;4.38;;;3.97;;
80229;SDS011;69540;42.136;24.742;2024-02-15T08:03:44;4.35;;;3.92;;
80229;SDS011;69540;42.136;24.742;2024-02-15T08:06:13;7.10;;;3.80;;
80229;SDS011;69540;42.136;24.742;2024-02-15T08:08:41;4.35;;;3.58;;
80229;SDS011;69540;42.136;24.742;2024-02-15T08:11:10;4.43;;;3.72;;
80229;SDS011;69540;42.136;24.742;2024-02-15T08:13:49;4.97;;;4.05;;
80229;SDS011;69540;42.136;24.742;2024-02-15T08:16:19;4.15;;;3.75;;
80229;SDS011;69540;42.136;24.742;2024-02-15T08:18:48;4.93;;;3.90;;
80229;SDS011;69540;42.136;24.742;2024-02-15T08:21:17;4.40;;;3.97;;
80229;SDS011;69540;42.136;24.742;2024-02-15T08:23:43;4.25;;;3.88;;
80229;SDS011;69540;42.136;24.742;2024-02-15T08:26:09;5.18;;;3.85;;
80229;SDS011;69540;42.136;24.742;2024-02-15T08:28:38;4.13;;;3.72;;
80229;SDS011;69540;42.136;24.742;2024-02-15T08:31:04;5.32;;;3.67;;
80229;SDS011;69540;42.136;24.742;2024-02-15T08:33:31;4.57;;;3.97;;
80229;SDS011;69540;42.136;24.742;2024-02-15T08:35:57;4.97;;;3.70;;
80229;SDS011;69540;42.136;24.742;2024-02-15T08:38:23;4.32;;;3.70;;
80229;SDS011;69540;42.136;24.742;2024-02-15T08:40:48;5.50;;;4.10;;
80229;SDS011;69540;42.136;24.742;2024-02-15T08:43:14;5.45;;;4.32;;
80229;SDS011;69540;42.136;24.742;2024-02-15T08:45:41;6.03;;;3.58;;
80229;SDS011;69540;42.136;24.742;2024-02-15T08:48:07;4.20;;;3.80;;
80229;SDS011;69540;42.136;24.742;2024-02-15T08:50:33;4.35;;;3.88;;
80229;SDS011;69540;42.136;24.742;2024-02-15T08:52:59;5.47;;;4.25;;
80229;SDS011;69540;42.136;24.742;2024-02-15T08:55:24;6.10;;;3.88;;
80229;SDS011;69540;42.136;24.742;2024-02-15T08:57:52;4.05;;;3.63;;
80229;SDS011;69540;42.136;24.742;2024-02-15T09:00:19;6.38;;;4.43;;
80229;SDS011;69540;42.136;24.742;2024-02-15T09:02:45;5.70;;;4.28;;
80229;SDS011;69540;42.136;24.742;2024-02-15T09:05:12;7.28;;;5.10;;
80229;SDS011;69540;42.136;24.742;2024-02-15T09:07:42;4.88;;;4.47;;
80229;SDS011;69540;42.136;24.742;2024-02-15T09:10:12;4.55;;;4.15;;
80229;SDS011;69540;42.136;24.742;2024-02-15T09:12:40;7.80;;;4.40;;
80229;SDS011;69540;42.136;24.742;2024-02-15T09:15:07;9.10;;;4.55;;
80229;SDS011;69540;42.136;24.742;2024-02-15T09:17:34;6.22;;;4.60;;
80229;SDS011;69540;42.136;24.742;2024-02-15T09:20:06;5.47;;;4.40;;
80229;SDS011;69540;42.136;24.742;2024-02-15T09:22:34;6.78;;;4.70;;
80229;SDS011;69540;42.136;24.742;2024-02-15T09:25:01;5.97;;;4.40;;
80229;SDS011;69540;42.136;24.742;2024-02-15T09:27:28;4.85;;;4.18;;
80229;SDS011;69540;42.136;24.742;2024-02-15T09:29:53;4.70;;;4.30;;
80229;SDS011;69540;42.136;24.742;2024-02-15T09:32:20;5.93;;;4.18;;
80229;SDS011;69540;42.136;24.742;2024-02-15T09:34:47;5.45;;;4.43;;
80229;SDS011;69540;42.136;24.742;2024-02-15T09:37:14;6.13;;;4.80;;
80229;SDS011;69540;42.136;24.742;2024-02-15T09:39:40;5.43;;;4.20;;
80229;SDS011;69540;42.136;24.742;2024-02-15T09:42:06;6.25;;;4.50;;
80229;SDS011;69540;42.136;24.742;2024-02-15T09:44:32;5.57;;;4.53;;
80229;SDS011;69540;42.136;24.742;2024-02-15T09:47:04;6.38;;;4.25;;
80229;SDS011;69540;42.136;24.742;2024-02-15T09:49:37;4.85;;;4.30;;
80229;SDS011;69540;42.136;24.742;2024-02-15T09:52:07;6.63;;;4.43;;
80229;SDS011;69540;42.136;24.742;2024-02-15T09:54:39;5.55;;;4.10;;
80229;SDS011;69540;42.136;24.742;2024-02-15T09:57:09;5.50;;;4.47;;
80229;SDS011;69540;42.136;24.742;2024-02-15T09:59:38;8.95;;;4.20;;
80229;SDS011;69540;42.136;24.742;2024-02-15T10:02:04;5.20;;;4.70;;
80229;SDS011;69540;42.136;24.742;2024-02-15T10:04:44;4.43;;;4.03;;
80229;SDS011;69540;42.136;24.742;2024-02-15T10:07:10;5.03;;;3.85;;
80229;SDS011;69540;42.136;24.742;2024-02-15T10:09:38;8.07;;;4.07;;
80229;SDS011;69540;42.136;24.742;2024-02-15T10:12:08;5.90;;;4.38;;
80229;SDS011;69540;42.136;24.742;2024-02-15T10:14:34;4.55;;;4.15;;
80229;SDS011;69540;42.136;24.742;2024-02-15T10:17:07;4.55;;;4.15;;
80229;SDS011;69540;42.136;24.742;2024-02-15T10:19:39;4.85;;;3.80;;
80229;SDS011;69540;42.136;24.742;2024-02-15T10:22:08;5.05;;;4.00;;
80229;SDS011;69540;42.136;24.742;2024-02-15T10:24:34;6.68;;;4.53;;
80229;SDS011;69540;42.136;24.742;2024-02-15T10:27:02;5.78;;;3.88;;
80229;SDS011;69540;42.136;24.742;2024-02-15T10:29:29;5.63;;;4.03;;
80229;SDS011;69540;42.136;24.742;2024-02-15T10:31:59;4.80;;;4.22;;
80229;SDS011;69540;42.136;24.742;2024-02-15T10:34:26;6.85;;;4.18;;
80229;SDS011;69540;42.136;24.742;2024-02-15T10:37:09;4.18;;;3.78;;
80229;SDS011;69540;42.136;24.742;2024-02-15T10:39:37;4.75;;;3.97;;
80229;SDS011;69540;42.136;24.742;2024-02-15T10:42:03;4.65;;;4.10;;
80229;SDS011;69540;42.136;24.742;2024-02-15T10:44:31;5.30;;;3.80;;
80229;SDS011;69540;42.136;24.742;2024-02-15T10:46:59;3.70;;;3.35;;
80229;SDS011;69540;42.136;24.742;2024-02-15T10:49:25;7.50;;;4.30;;
80229;SDS011;69540;42.136;24.742;2024-02-15T10:51:59;4.82;;;3.75;;
80229;SDS011;69540;42.136;24.742;2024-02-15T10:54:41;6.05;;;3.90;;
80229;SDS011;69540;42.136;24.742;2024-02-15T10:57:20;4.45;;;3.45;;
80229;SDS011;69540;42.136;24.742;2024-02-15T10:59:55;4.63;;;3.67;;
80229;SDS011;69540;42.136;24.742;2024-02-15T11:02:29;4.93;;;3.72;;
80229;SDS011;69540;42.136;24.742;2024-02-15T11:05:01;4.70;;;3.53;;
80229;SDS011;69540;42.136;24.742;2024-02-15T11:07:30;3.88;;;3.30;;
80229;SDS011;69540;42.136;24.742;2024-02-15T11:09:56;3.95;;;3.47;;
80229;SDS011;69540;42.136;24.742;2024-02-15T11:12:23;3.63;;;3.33;;
80229;SDS011;69540;42.136;24.742;2024-02-15T11:14:53;4.80;;;3.10;;
80229;SDS011;69540;42.136;24.742;2024-02-15T11:20:10;4.03;;;3.30;;
80229;SDS011;69540;42.136;24.742;2024-02-15T11:23:05;4.38;;;3.97;;
80229;SDS011;69540;42.136;24.742;2024-02-15T11:25:33;6.32;;;3.92;;
80229;SDS011;69540;42.136;24.742;2024-02-15T11:30:47;4.18;;;3.78;;
80229;SDS011;69540;42.136;24.742;2024-02-15T11:33:27;4.43;;;3.30;;
80229;SDS011;69540;42.136;24.742;2024-02-15T11:38:33;3.40;;;3.10;;
80229;SDS011;69540;42.136;24.742;2024-02-15T11:46:17;4.10;;;3.47;;
80229;SDS011;69540;42.136;24.742;2024-02-15T11:48:47;3.08;;;2.88;;
80229;SDS011;69540;42.136;24.742;2024-02-15T11:51:29;4.53;;;3.08;;
80229;SDS011;69540;42.136;24.742;2024-02-15T11:54:11;3.20;;;2.90;;
80229;SDS011;69540;42.136;24.742;2024-02-15T11:59:12;3.05;;;2.85;;
80229;SDS011;69540;42.136;24.742;2024-02-15T12:01:53;4.20;;;3.80;;
80229;SDS011;69540;42.136;24.742;2024-02-15T12:04:41;3.30;;;3.00;;
80229;SDS011;69540;42.136;24.742;2024-02-15T12:07:25;3.40;;;3.10;;
80229;SDS011;69540;42.136;24.742;2024-02-15T12:10:16;3.75;;;3.45;;
80229;SDS011;69540;42.136;24.742;2024-02-15T12:13:01;3.00;;;2.80;;
80229;SDS011;69540;42.136;24.742;2024-02-15T12:15:59;2.97;;;2.70;;
80229;SDS011;69540;42.136;24.742;2024-02-15T12:18:44;3.30;;;3.00;;
80229;SDS011;69540;42.136;24.742;2024-02-15T12:21:18;3.33;;;3.10;;
80229;SDS011;69540;42.136;24.742;2024-02-15T12:23:48;3.40;;;3.10;;
80229;SDS011;69540;42.136;24.742;2024-02-15T12:26:20;4.18;;;3.40;;
80229;SDS011;69540;42.136;24.742;2024-02-15T12:28:52;3.67;;;3.05;;
80229;SDS011;69540;42.136;24.742;2024-02-15T12:31:21;3.17;;;2.88;;
80229;SDS011;69540;42.136;24.742;2024-02-15T12:34:03;3.17;;;2.88;;
80229;SDS011;69540;42.136;24.742;2024-02-15T12:36:33;3.28;;;3.05;;
80229;SDS011;69540;42.136;24.742;2024-02-15T12:39:06;4.07;;;2.83;;
80229;SDS011;69540;42.136;24.742;2024-02-15T12:41:47;2.80;;;2.60;;
80229;SDS011;69540;42.136;24.742;2024-02-15T12:44:17;3.20;;;2.90;;
80229;SDS011;69540;42.136;24.742;2024-02-15T12:46:53;3.75;;;3.33;;
80229;SDS011;69540;42.136;24.742;2024-02-15T12:51:52;3.35;;;3.05;;
80229;SDS011;69540;42.136;24.742;2024-02-15T12:54:20;3.17;;;2.90;;
80229;SDS011;69540;42.136;24.742;2024-02-15T12:56:46;3.47;;;2.53;;
80229;SDS011;69540;42.136;24.742;2024-02-15T12:59:18;3.42;;;3.13;;
80229;SDS011;69540;42.136;24.742;2024-02-15T13:01:44;4.00;;;3.05;;
80229;SDS011;69540;42.136;24.742;2024-02-15T13:04:26;3.90;;;3.00;;
80229;SDS011;69540;42.136;24.742;2024-02-15T13:06:51;3.38;;;3.08;;
80229;SDS011;69540;42.136;24.742;2024-02-15T13:09:17;3.10;;;2.80;;
80229;SDS011;69540;42.136;24.742;2024-02-15T13:11:44;2.88;;;2.60;;
80229;SDS011;69540;42.136;24.742;2024-02-15T13:14:10;3.63;;;3.33;;
80229;SDS011;69540;42.136;24.742;2024-02-15T13:16:37;3.90;;;3.13;;
80229;SDS011;69540;42.136;24.742;2024-02-15T13:19:03;3.35;;;2.78;;
80229;SDS011;69540;42.136;24.742;2024-02-15T13:21:31;3.33;;;3.00;;
80229;SDS011;69540;42.136;24.742;2024-02-15T13:23:59;4.07;;;3.17;;
80229;SDS011;69540;42.136;24.742;2024-02-15T13:26:29;3.20;;;2.90;;
80229;SDS011;69540;42.136;24.742;2024-02-15T13:28:55;3.40;;;3.10;;
80229;SDS011;69540;42.136;24.742;2024-02-15T13:31:21;3.92;;;3.15;;
80229;SDS011;69540;42.136;24.742;2024-02-15T13:33:47;3.42;;;3.00;;
80229;SDS011;69540;42.136;24.742;2024-02-15T13:36:13;2.75;;;2.55;;
80229;SDS011;69540;42.136;24.742;2024-02-15T13:38:40;2.80;;;2.60;;
80229;SDS011;69540;42.136;24.742;2024-02-15T13:41:07;3.08;;;2.78;;
80229;SDS011;69540;42.136;24.742;2024-02-15T13:43:33;3.67;;;3.38;;
80229;SDS011;69540;42.136;24.742;2024-02-15T13:45:59;3.30;;;3.00;;
80229;SDS011;69540;42.136;24.742;2024-02-15T13:48:28;2.80;;;2.60;;
80229;SDS011;69540;42.136;24.742;2024-02-15T13:50:55;3.88;;;2.75;;
80229;SDS011;69540;42.136;24.742;2024-02-15T13:53:21;2.75;;;2.40;;
80229;SDS011;69540;42.136;24.742;2024-02-15T13:55:47;3.17;;;2.90;;
80229;SDS011;69540;42.136;24.742;2024-02-15T13:58:13;3.40;;;3.10;;
80229;SDS011;69540;42.136;24.742;2024-02-15T14:00:39;3.13;;;2.90;;
80229;SDS011;69540;42.136;24.742;2024-02-15T14:03:07;4.22;;;2.90;;
80229;SDS011;69540;42.136;24.742;2024-02-15T14:05:35;2.80;;;2.55;;
80229;SDS011;69540;42.136;24.742;2024-02-15T14:08:01;3.13;;;2.83;;
80229;SDS011;69540;42.136;24.742;2024-02-15T14:10:31;3.08;;;2.67;;
80229;SDS011;69540;42.136;24.742;2024-02-15T14:13:00;4.45;;;2.80;;
80229;SDS011;69540;42.136;24.742;2024-02-15T14:15:29;3.88;;;3.10;;
80229;SDS011;69540;42.136;24.742;2024-02-15T14:17:55;3.30;;;3.00;;
80229;SDS011;69540;42.136;24.742;2024-02-15T14:20:21;2.58;;;2.38;;
80229;SDS011;69540;42.136;24.742;2024-02-15T14:22:47;2.97;;;2.70;;
80229;SDS011;69540;42.136;24.742;2024-02-15T14:25:18;3.55;;;2.55;;
80229;SDS011;69540;42.136;24.742;2024-02-15T14:27:44;2.58;;;2.38;;
80229;SDS011;69540;42.136;24.742;2024-02-15T14:30:12;4.18;;;2.75;;
80229;SDS011;69540;42.136;24.742;2024-02-15T14:32:57;3.00;;;2.70;;
80229;SDS011;69540;42.136;24.742;2024-02-15T14:35:32;2.67;;;2.40;;
80229;SDS011;69540;42.136;24.742;2024-02-15T14:40:39;3.95;;;2.88;;
80229;SDS011;69540;42.136;24.742;2024-02-15T14:43:09;5.05;;;3.58;;
80229;SDS011;69540;42.136;24.742;2024-02-15T14:45:46;3.33;;;2.88;;
80229;SDS011;69540;42.136;24.742;2024-02-15T14:48:12;3.05;;;2.75;;
80229;SDS011;69540;42.136;24.742;2024-02-15T14:50:38;3.60;;;2.60;;
80229;SDS011;69540;42.136;24.742;2024-02-15T14:53:05;2.75;;;2.55;;
80229;SDS011;69540;42.136;24.742;2024-02-15T14:55:33;4.18;;;2.67;;
80229;SDS011;69540;42.136;24.742;2024-02-15T14:57:59;3.83;;;2.88;;
80229;SDS011;69540;42.136;24.742;2024-02-15T15:00:24;5.90;;;2.58;;
80229;SDS011;69540;42.136;24.742;2024-02-15T15:02:51;3.70;;;2.83;;
80229;SDS011;69540;42.136;24.742;2024-02-15T15:05:18;3.30;;;2.97;;